Time;durP1;ratioP1;P1;durP2;ratioP2;P2;SDS_P1;SDS_P2;PMS_P1;PMS_P2;Temp;Humidity;BMP_temperature;BMP_pressure;BME280_temperature;BME280_humidity;BME280_pressure;Samples;Min_cycle;Max_cycle;Signal;HPM_P1;HPM_P2
2021/09/15 00:01:16;;;;;;;48.55;37.05;;;;;;;;;;5070770;28;20038;-72
2021/09/15 00:03:42;;;;;;;50.42;39.40;;;;;;;;;;5067340;28;20036;-73
2021/09/15 00:06:08;;;;;;;50.80;36.80;;;;;;;;;;5067424;28;20012;-73
2021/09/15 00:08:34;;;;;;;53.72;39.65;;;;;;;;;;5065762;28;20024;-73
2021/09/15 00:11:01;;;;;;;52.05;37.17;;;;;;;;;;5069537;28;20464;-73
2021/09/15 00:13:28;;;;;;;48.60;37.25;;;;;;;;;;5069811;28;20067;-73
2021/09/15 00:15:54;;;;;;;55.72;38.80;;;;;;;;;;5070180;28;20028;-73
2021/09/15 00:18:20;;;;;;;51.80;38.80;;;;;;;;;;5069492;28;20094;-73
2021/09/15 00:20:46;;;;;;;50.50;36.60;;;;;;;;;;5070666;28;20031;-73
2021/09/15 00:23:12;;;;;;;50.67;37.25;;;;;;;;;;5064829;28;20036;-73
2021/09/15 00:25:38;;;;;;;47.50;35.28;;;;;;;;;;5069504;28;20028;-73
2021/09/15 00:28:04;;;;;;;48.35;36.55;;;;;;;;;;5069207;28;20020;-73
2021/09/15 00:30:30;;;;;;;43.63;33.22;;;;;;;;;;5069913;28;20028;-73
2021/09/15 00:32:56;;;;;;;52.13;34.95;;;;;;;;;;5068074;28;20024;-74
2021/09/15 00:35:22;;;;;;;44.75;34.33;;;;;;;;;;5070571;28;20040;-73
2021/09/15 00:37:48;;;;;;;49.85;35.22;;;;;;;;;;5065874;28;20062;-73
2021/09/15 00:40:14;;;;;;;48.75;36.05;;;;;;;;;;5070294;28;20029;-73
2021/09/15 00:42:40;;;;;;;49.08;34.83;;;;;;;;;;5069278;28;20051;-73
2021/09/15 00:45:07;;;;;;;49.50;36.28;;;;;;;;;;5069707;28;20379;-73
2021/09/15 00:47:33;;;;;;;50.63;37.38;;;;;;;;;;5069233;28;20051;-73
2021/09/15 00:49:59;;;;;;;49.20;36.95;;;;;;;;;;5070648;28;20123;-74
2021/09/15 00:52:25;;;;;;;50.17;37.40;;;;;;;;;;5072740;28;20050;-73
2021/09/15 00:54:52;;;;;;;47.70;35.55;;;;;;;;;;5072402;28;20039;-73
2021/09/15 00:57:18;;;;;;;45.13;32.58;;;;;;;;;;5072133;28;20021;-73
2021/09/15 00:59:44;;;;;;;46.55;33.53;;;;;;;;;;5072833;28;20086;-73
2021/09/15 01:02:11;;;;;;;48.28;34.88;;;;;;;;;;5072008;28;20051;-73
2021/09/15 01:04:37;;;;;;;45.17;32.85;;;;;;;;;;5068804;28;20903;-73
2021/09/15 01:07:03;;;;;;;45.55;34.65;;;;;;;;;;5073144;28;20074;-74
2021/09/15 01:09:31;;;;;;;44.20;32.35;;;;;;;;;;5071982;28;20024;-74
2021/09/15 01:11:58;;;;;;;47.25;34.90;;;;;;;;;;5072451;28;20017;-73
2021/09/15 01:14:24;;;;;;;45.53;34.90;;;;;;;;;;5071295;28;20017;-73
2021/09/15 01:16:51;;;;;;;49.42;37.90;;;;;;;;;;5073004;28;20406;-73
2021/09/15 01:19:18;;;;;;;49.13;33.85;;;;;;;;;;5072405;28;20115;-73
2021/09/15 01:21:44;;;;;;;47.83;33.33;;;;;;;;;;5065318;28;20021;-73
2021/09/15 01:24:10;;;;;;;52.80;34.22;;;;;;;;;;5072586;28;20021;-73
2021/09/15 01:26:37;;;;;;;46.55;31.60;;;;;;;;;;5073548;28;20620;-73
2021/09/15 01:29:04;;;;;;;47.65;36.15;;;;;;;;;;5072137;28;20059;-73
2021/09/15 01:31:30;;;;;;;45.58;33.35;;;;;;;;;;5072317;28;20024;-73
2021/09/15 01:33:56;;;;;;;49.63;35.17;;;;;;;;;;5069285;28;20032;-73
2021/09/15 01:36:22;;;;;;;46.88;35.70;;;;;;;;;;5071867;28;20032;-73
2021/09/15 01:38:48;;;;;;;46.40;34.92;;;;;;;;;;5072053;28;20036;-73
2021/09/15 01:41:14;;;;;;;45.05;33.92;;;;;;;;;;5072202;28;20025;-73
2021/09/15 01:43:49;;;;;;;52.25;35.50;;;;;;;;;;5072218;28;20016;-74
2021/09/15 01:46:15;;;;;;;54.22;39.67;;;;;;;;;;5072365;28;20035;-74
2021/09/15 01:48:41;;;;;;;50.55;38.35;;;;;;;;;;5070229;28;20054;-73
2021/09/15 01:51:07;;;;;;;61.13;39.22;;;;;;;;;;5073380;28;20039;-73
2021/09/15 01:53:33;;;;;;;50.55;36.42;;;;;;;;;;5071412;28;20017;-73
2021/09/15 01:55:59;;;;;;;49.75;36.60;;;;;;;;;;5071952;28;20051;-74
2021/09/15 01:58:25;;;;;;;60.83;39.10;;;;;;;;;;5070261;28;20051;-74
2021/09/15 02:00:51;;;;;;;66.68;43.92;;;;;;;;;;5072007;28;20305;-74
2021/09/15 02:03:17;;;;;;;61.47;43.47;;;;;;;;;;5070954;28;20407;-73
2021/09/15 02:05:43;;;;;;;62.97;43.58;;;;;;;;;;5070090;28;20563;-73
2021/09/15 02:08:09;;;;;;;67.43;45.15;;;;;;;;;;5069746;28;20083;-74
2021/09/15 02:10:35;;;;;;;57.47;42.53;;;;;;;;;;5072084;28;20028;-74
2021/09/15 02:13:01;;;;;;;65.32;44.17;;;;;;;;;;5072210;28;20024;-73
2021/09/15 02:15:28;;;;;;;64.20;44.90;;;;;;;;;;5071405;28;20032;-74
2021/09/15 02:17:54;;;;;;;62.63;42.63;;;;;;;;;;5071486;28;20525;-73
2021/09/15 02:20:20;;;;;;;65.50;45.22;;;;;;;;;;5072300;28;20032;-74
2021/09/15 02:22:46;;;;;;;68.80;46.80;;;;;;;;;;5070834;28;20502;-73
2021/09/15 02:25:12;;;;;;;68.03;44.53;;;;;;;;;;5070886;28;20016;-73
2021/09/15 02:27:38;;;;;;;67.47;45.67;;;;;;;;;;5069378;28;20020;-74
2021/09/15 02:30:04;;;;;;;81.35;51.22;;;;;;;;;;5069101;28;20043;-73
2021/09/15 02:32:30;;;;;;;71.03;46.92;;;;;;;;;;5070472;28;20032;-73
2021/09/15 02:34:56;;;;;;;72.28;48.45;;;;;;;;;;5072168;28;20025;-73
2021/09/15 02:37:22;;;;;;;97.60;57.63;;;;;;;;;;5070447;28;20053;-73
2021/09/15 02:39:48;;;;;;;88.97;56.13;;;;;;;;;;5070142;28;20035;-73
2021/09/15 02:42:14;;;;;;;86.15;54.47;;;;;;;;;;5071986;28;20028;-73
2021/09/15 02:44:40;;;;;;;109.35;65.45;;;;;;;;;;5070765;28;20020;-72
2021/09/15 02:47:07;;;;;;;98.45;61.63;;;;;;;;;;5073323;28;20074;-72
2021/09/15 02:49:33;;;;;;;106.15;62.80;;;;;;;;;;5070781;28;20024;-73
2021/09/15 02:51:59;;;;;;;103.32;61.28;;;;;;;;;;5071605;28;20024;-73
2021/09/15 02:54:25;;;;;;;107.53;63.40;;;;;;;;;;5068955;28;20082;-72
2021/09/15 02:56:51;;;;;;;115.75;65.80;;;;;;;;;;5069204;28;20039;-72
2021/09/15 02:59:17;;;;;;;129.60;69.53;;;;;;;;;;5068279;28;20564;-73
2021/09/15 03:01:43;;;;;;;129.60;68.95;;;;;;;;;;5069323;28;20517;-73
2021/09/15 03:04:09;;;;;;;114.60;66.25;;;;;;;;;;5063811;28;20033;-72
2021/09/15 03:06:35;;;;;;;110.78;62.67;;;;;;;;;;5070616;28;20017;-72
2021/09/15 03:09:01;;;;;;;108.68;61.28;;;;;;;;;;5070267;28;20033;-72
2021/09/15 03:11:27;;;;;;;101.13;59.70;;;;;;;;;;5070036;28;20032;-72
2021/09/15 03:13:53;;;;;;;91.10;56.33;;;;;;;;;;5060216;28;20025;-72
2021/09/15 03:16:21;;;;;;;87.00;52.30;;;;;;;;;;5070851;28;20058;-72
2021/09/15 03:18:47;;;;;;;85.78;51.72;;;;;;;;;;5069658;28;20497;-72
2021/09/15 03:21:13;;;;;;;83.28;50.78;;;;;;;;;;5070661;28;20178;-72
2021/09/15 03:23:39;;;;;;;77.75;51.17;;;;;;;;;;5069918;28;20021;-72
2021/09/15 03:26:05;;;;;;;85.72;50.00;;;;;;;;;;5070317;28;20538;-72
2021/09/15 03:28:31;;;;;;;82.57;49.80;;;;;;;;;;5063906;28;20099;-71
2021/09/15 03:30:57;;;;;;;91.15;55.60;;;;;;;;;;5070562;28;20115;-73
2021/09/15 03:33:23;;;;;;;85.07;52.53;;;;;;;;;;5065946;28;20052;-72
2021/09/15 03:35:49;;;;;;;81.70;52.38;;;;;;;;;;5067136;28;20483;-72
2021/09/15 03:38:15;;;;;;;92.68;55.97;;;;;;;;;;5068585;28;20048;-72
2021/09/15 03:40:41;;;;;;;87.32;53.38;;;;;;;;;;5069107;28;20025;-72
2021/09/15 03:43:07;;;;;;;83.68;54.17;;;;;;;;;;5070775;28;20032;-72
2021/09/15 03:45:33;;;;;;;86.97;55.25;;;;;;;;;;5069589;28;20024;-72
2021/09/15 03:47:59;;;;;;;78.70;51.03;;;;;;;;;;5069941;28;20040;-72
2021/09/15 03:50:25;;;;;;;76.90;51.00;;;;;;;;;;5068646;28;20032;-72
2021/09/15 03:52:51;;;;;;;78.68;51.60;;;;;;;;;;5069896;28;20031;-72
2021/09/15 03:55:18;;;;;;;67.57;44.95;;;;;;;;;;5069899;28;20462;-72
2021/09/15 03:57:44;;;;;;;69.90;43.47;;;;;;;;;;5069277;28;20032;-72
2021/09/15 04:00:10;;;;;;;66.40;42.90;;;;;;;;;;5066965;28;20490;-72
2021/09/15 04:02:36;;;;;;;66.75;44.20;;;;;;;;;;5068090;28;20383;-73
2021/09/15 04:05:03;;;;;;;61.22;41.08;;;;;;;;;;5068222;28;20440;-72
2021/09/15 04:07:29;;;;;;;54.30;38.53;;;;;;;;;;5068380;28;20507;-72
2021/09/15 04:09:55;;;;;;;58.78;39.95;;;;;;;;;;5068456;28;20028;-72
2021/09/15 04:12:21;;;;;;;56.83;38.58;;;;;;;;;;5066795;28;20043;-72
2021/09/15 04:14:47;;;;;;;54.28;36.45;;;;;;;;;;5070586;28;20050;-73
2021/09/15 04:17:13;;;;;;;54.97;36.35;;;;;;;;;;5067816;28;20413;-72
2021/09/15 04:19:39;;;;;;;59.25;37.22;;;;;;;;;;5070471;28;20582;-72
2021/09/15 04:22:07;;;;;;;55.92;35.50;;;;;;;;;;5066196;28;20548;-72
2021/09/15 04:32:34;;;;;;;51.80;31.67;;;;;;;;;;5069635;28;20048;-72
2021/09/15 04:35:01;;;;;;;48.50;32.92;;;;;;;;;;5069593;28;20082;-72
2021/09/15 04:37:27;;;;;;;50.92;31.85;;;;;;;;;;5067847;28;20392;-73
2021/09/15 04:39:53;;;;;;;47.50;31.27;;;;;;;;;;5069926;28;20025;-72
2021/09/15 04:42:19;;;;;;;47.90;30.10;;;;;;;;;;5069760;28;20036;-72
2021/09/15 04:44:45;;;;;;;45.58;30.08;;;;;;;;;;5069458;28;20024;-73
2021/09/15 04:47:11;;;;;;;48.17;31.52;;;;;;;;;;5068849;28;20055;-73
2021/09/15 04:49:37;;;;;;;49.67;32.15;;;;;;;;;;5066401;28;20056;-72
2021/09/15 04:52:03;;;;;;;45.65;29.15;;;;;;;;;;5072195;28;20025;-73
2021/09/15 04:54:29;;;;;;;43.40;29.40;;;;;;;;;;5069420;28;20039;-72
2021/09/15 04:56:55;;;;;;;45.88;30.73;;;;;;;;;;5069067;28;20230;-72
2021/09/15 04:59:21;;;;;;;44.63;28.13;;;;;;;;;;5068201;28;20078;-72
2021/09/15 05:01:47;;;;;;;37.72;24.17;;;;;;;;;;5067880;28;20129;-72
2021/09/15 05:04:13;;;;;;;38.40;25.77;;;;;;;;;;5068683;28;20112;-73
2021/09/15 05:06:39;;;;;;;39.78;26.33;;;;;;;;;;5070825;28;20027;-73
2021/09/15 05:09:05;;;;;;;38.60;23.88;;;;;;;;;;5067318;28;20020;-73
2021/09/15 05:11:31;;;;;;;28.67;20.55;;;;;;;;;;5068194;28;20070;-72
2021/09/15 05:13:57;;;;;;;29.33;21.02;;;;;;;;;;5068776;28;20033;-72
2021/09/15 05:16:23;;;;;;;27.73;17.00;;;;;;;;;;5068093;28;20029;-72
2021/09/15 05:18:49;;;;;;;24.13;17.20;;;;;;;;;;5067618;28;20032;-72
2021/09/15 05:21:15;;;;;;;26.40;18.35;;;;;;;;;;5066767;28;20032;-73
2021/09/15 05:23:41;;;;;;;25.58;18.35;;;;;;;;;;5061040;28;20017;-74
2021/09/15 05:26:07;;;;;;;25.98;19.17;;;;;;;;;;5068616;28;20021;-72
2021/09/15 05:28:33;;;;;;;26.98;18.17;;;;;;;;;;5067005;28;20032;-72
2021/09/15 05:31:00;;;;;;;24.00;18.70;;;;;;;;;;5064033;28;20020;-72
2021/09/15 05:33:26;;;;;;;25.95;16.25;;;;;;;;;;5064370;28;20025;-72
2021/09/15 05:35:52;;;;;;;21.13;16.02;;;;;;;;;;5069135;28;20087;-72
2021/09/15 05:38:19;;;;;;;25.48;16.85;;;;;;;;;;5067170;28;20041;-72
2021/09/15 05:40:45;;;;;;;19.58;14.30;;;;;;;;;;5070828;28;20093;-74
2021/09/15 05:43:11;;;;;;;20.30;14.10;;;;;;;;;;5071583;28;20023;-73
2021/09/15 05:45:37;;;;;;;14.73;11.68;;;;;;;;;;5070177;28;20024;-74
2021/09/15 05:48:03;;;;;;;17.25;12.55;;;;;;;;;;5071458;28;20031;-73
2021/09/15 05:50:29;;;;;;;17.85;12.43;;;;;;;;;;5072689;28;20029;-73
2021/09/15 05:52:55;;;;;;;19.92;12.50;;;;;;;;;;5073566;28;20024;-72
2021/09/15 05:55:21;;;;;;;18.92;12.98;;;;;;;;;;5080393;28;20103;-73
2021/09/15 05:57:47;;;;;;;14.32;10.52;;;;;;;;;;5071259;28;20029;-73
2021/09/15 06:00:14;;;;;;;16.60;11.95;;;;;;;;;;5073491;28;20050;-73
2021/09/15 06:02:40;;;;;;;15.95;11.52;;;;;;;;;;5072269;28;20025;-73
2021/09/15 06:05:06;;;;;;;20.27;12.32;;;;;;;;;;5075109;28;20056;-74
2021/09/15 06:07:32;;;;;;;22.33;11.55;;;;;;;;;;5072048;28;20099;-74
2021/09/15 06:09:58;;;;;;;15.95;10.05;;;;;;;;;;5071323;28;20120;-74
2021/09/15 06:12:24;;;;;;;17.33;10.93;;;;;;;;;;5072834;28;20099;-73
2021/09/15 06:14:50;;;;;;;17.70;11.57;;;;;;;;;;5072596;28;20107;-73
2021/09/15 06:17:16;;;;;;;22.00;11.40;;;;;;;;;;5071232;28;20031;-71
2021/09/15 06:19:42;;;;;;;19.30;10.95;;;;;;;;;;5081058;28;20065;-72
2021/09/15 06:22:08;;;;;;;16.70;10.10;;;;;;;;;;5077066;28;20016;-73
2021/09/15 06:24:34;;;;;;;15.30;9.32;;;;;;;;;;5072318;28;20027;-72
2021/09/15 06:27:00;;;;;;;15.73;8.77;;;;;;;;;;5072119;28;20020;-75
2021/09/15 06:29:26;;;;;;;16.65;8.48;;;;;;;;;;5072212;28;20021;-74
2021/09/15 06:31:52;;;;;;;15.65;7.97;;;;;;;;;;5076084;28;20615;-75
2021/09/15 06:34:19;;;;;;;12.48;7.70;;;;;;;;;;5066180;28;20025;-74
2021/09/15 06:36:45;;;;;;;20.23;8.45;;;;;;;;;;5070746;28;20059;-74
2021/09/15 06:39:11;;;;;;;14.95;8.38;;;;;;;;;;5072386;28;20078;-74
2021/09/15 06:41:37;;;;;;;13.98;7.75;;;;;;;;;;5072441;28;20048;-75
2021/09/15 06:44:04;;;;;;;10.13;6.95;;;;;;;;;;5071185;28;20025;-74
2021/09/15 06:46:30;;;;;;;16.10;6.35;;;;;;;;;;5069931;28;20020;-72
2021/09/15 06:48:56;;;;;;;11.75;5.63;;;;;;;;;;5063068;28;20392;-74
2021/09/15 06:51:22;;;;;;;13.70;5.03;;;;;;;;;;5067303;28;20037;-74
2021/09/15 06:53:48;;;;;;;11.32;4.82;;;;;;;;;;5063295;28;20047;-73
2021/09/15 06:56:15;;;;;;;13.48;5.75;;;;;;;;;;5069929;28;20064;-73
2021/09/15 06:58:41;;;;;;;16.42;5.40;;;;;;;;;;5068275;28;20025;-74
2021/09/15 07:01:07;;;;;;;12.15;5.05;;;;;;;;;;5075376;28;20043;-73
2021/09/15 07:03:33;;;;;;;14.20;4.97;;;;;;;;;;5070089;28;20031;-74
2021/09/15 07:05:59;;;;;;;12.05;5.30;;;;;;;;;;5069290;28;20036;-74
2021/09/15 07:08:25;;;;;;;11.48;4.55;;;;;;;;;;5066888;28;20028;-73
2021/09/15 07:10:51;;;;;;;10.30;3.97;;;;;;;;;;5070562;28;20036;-74
2021/09/15 07:13:17;;;;;;;9.63;5.10;;;;;;;;;;5070717;28;20028;-74
2021/09/15 07:15:44;;;;;;;14.23;3.83;;;;;;;;;;5071875;28;20043;-74
2021/09/15 07:18:12;;;;;;;9.80;2.33;;;;;;;;;;5068729;28;20090;-74
2021/09/15 07:20:38;;;;;;;10.63;2.20;;;;;;;;;;5070723;28;20090;-74
2021/09/15 07:23:04;;;;;;;12.40;2.17;;;;;;;;;;5070732;28;20514;-74
2021/09/15 07:25:30;;;;;;;13.75;2.20;;;;;;;;;;5070931;28;20023;-74
2021/09/15 07:27:56;;;;;;;12.27;2.08;;;;;;;;;;5069886;28;20105;-73
2021/09/15 07:30:22;;;;;;;13.77;1.65;;;;;;;;;;5064541;28;20464;-76
2021/09/15 07:32:48;;;;;;;10.30;1.77;;;;;;;;;;5071041;28;20035;-74
2021/09/15 07:35:15;;;;;;;5.60;1.42;;;;;;;;;;5065829;28;20402;-73
2021/09/15 07:37:41;;;;;;;8.32;2.08;;;;;;;;;;5049596;28;20136;-74
2021/09/15 07:40:08;;;;;;;11.10;2.97;;;;;;;;;;5056850;28;20032;-73
2021/09/15 07:42:34;;;;;;;8.60;2.00;;;;;;;;;;5071260;28;20035;-76
2021/09/15 07:45:00;;;;;;;15.15;2.60;;;;;;;;;;5070035;28;20024;-74
2021/09/15 07:47:26;;;;;;;13.38;2.50;;;;;;;;;;5068128;28;20012;-75
2021/09/15 07:49:52;;;;;;;9.05;1.98;;;;;;;;;;5071117;28;20039;-73
2021/09/15 07:52:18;;;;;;;14.20;2.55;;;;;;;;;;5070683;28;20267;-75
2021/09/15 07:54:44;;;;;;;10.13;1.83;;;;;;;;;;5070121;28;20077;-73
2021/09/15 07:57:10;;;;;;;9.60;2.00;;;;;;;;;;5069266;28;20024;-74
2021/09/15 07:59:36;;;;;;;13.27;2.50;;;;;;;;;;5069201;28;20066;-73
2021/09/15 08:02:03;;;;;;;9.60;2.10;;;;;;;;;;5062994;28;20028;-74
2021/09/15 08:04:29;;;;;;;17.77;2.63;;;;;;;;;;5058535;28;20027;-72
2021/09/15 08:06:55;;;;;;;12.02;1.73;;;;;;;;;;5059850;28;20032;-74
2021/09/15 08:09:21;;;;;;;7.57;1.63;;;;;;;;;;5064197;28;20024;-73
2021/09/15 08:11:47;;;;;;;10.35;2.53;;;;;;;;;;5070852;28;20115;-73
2021/09/15 08:14:13;;;;;;;10.90;1.80;;;;;;;;;;5070142;28;20028;-76
2021/09/15 08:16:39;;;;;;;8.65;2.03;;;;;;;;;;5054395;28;20024;-72
2021/09/15 08:19:05;;;;;;;16.75;2.75;;;;;;;;;;5067333;28;20060;-73
2021/09/15 08:21:31;;;;;;;7.90;1.65;;;;;;;;;;5065636;28;20379;-74
2021/09/15 08:23:59;;;;;;;10.18;1.83;;;;;;;;;;5070126;28;20107;-74
2021/09/15 08:26:25;;;;;;;11.23;1.70;;;;;;;;;;5069830;28;20025;-73
2021/09/15 08:28:51;;;;;;;9.68;2.08;;;;;;;;;;5066932;28;20029;-74
2021/09/15 08:31:17;;;;;;;11.82;2.17;;;;;;;;;;5070260;28;20111;-74
2021/09/15 08:33:43;;;;;;;9.35;2.72;;;;;;;;;;5069597;28;20032;-73
2021/09/15 08:36:09;;;;;;;9.70;1.73;;;;;;;;;;5070244;28;20414;-74
2021/09/15 08:38:35;;;;;;;12.13;2.30;;;;;;;;;;5067649;28;20048;-73
2021/09/15 08:41:02;;;;;;;10.43;2.70;;;;;;;;;;5069868;28;20083;-72
2021/09/15 08:43:29;;;;;;;10.35;1.80;;;;;;;;;;5068954;28;20028;-73
2021/09/15 08:45:57;;;;;;;7.80;2.13;;;;;;;;;;5067322;28;20025;-74
2021/09/15 08:48:24;;;;;;;8.93;2.72;;;;;;;;;;5067022;28;20082;-74
2021/09/15 08:50:50;;;;;;;7.25;2.00;;;;;;;;;;5068615;28;20033;-76
2021/09/15 08:53:17;;;;;;;12.35;2.30;;;;;;;;;;5069744;28;20291;-74
2021/09/15 08:55:46;;;;;;;9.98;1.52;;;;;;;;;;5070343;28;20441;-74
2021/09/15 08:58:13;;;;;;;11.80;1.80;;;;;;;;;;5066837;28;20032;-72
2021/09/15 09:00:39;;;;;;;12.60;2.13;;;;;;;;;;5062054;28;20487;-72
2021/09/15 09:03:05;;;;;;;14.18;3.70;;;;;;;;;;5069570;28;20017;-74
2021/09/15 09:05:31;;;;;;;13.82;2.75;;;;;;;;;;5070161;28;20178;-73
2021/09/15 09:07:57;;;;;;;12.57;2.33;;;;;;;;;;5067937;28;20077;-73
2021/09/15 09:10:23;;;;;;;14.70;2.25;;;;;;;;;;5069757;28;20497;-74
2021/09/15 09:12:50;;;;;;;10.40;1.98;;;;;;;;;;5071236;28;20040;-73
2021/09/15 09:15:16;;;;;;;13.93;2.28;;;;;;;;;;5073224;28;20089;-74
2021/09/15 09:17:42;;;;;;;15.18;1.90;;;;;;;;;;5071277;28;20029;-73
2021/09/15 09:20:23;;;;;;;12.63;2.63;;;;;;;;;;5071851;28;20031;-75
2021/09/15 09:23:20;;;;;;;9.73;2.72;;;;;;;;;;5072020;28;20028;-72
2021/09/15 09:25:55;;;;;;;12.75;2.08;;;;;;;;;;5064623;28;20032;-73
2021/09/15 09:28:24;;;;;;;30.63;3.03;;;;;;;;;;5069886;28;20440;-72
2021/09/15 09:30:51;;;;;;;15.77;3.22;;;;;;;;;;5073119;28;20035;-73
2021/09/15 09:33:17;;;;;;;15.35;2.35;;;;;;;;;;5073218;28;20530;-74
2021/09/15 09:35:45;;;;;;;16.05;3.08;;;;;;;;;;5073231;28;20486;-72
2021/09/15 09:38:34;;;;;;;14.68;2.88;;;;;;;;;;5070326;28;20044;-75
2021/09/15 09:41:04;;;;;;;11.20;2.20;;;;;;;;;;5051653;28;20040;-73
2021/09/15 09:43:31;;;;;;;8.05;2.10;;;;;;;;;;5063329;28;20048;-76
2021/09/15 09:45:58;;;;;;;13.00;1.85;;;;;;;;;;5072249;28;20055;-72
2021/09/15 09:48:34;;;;;;;14.02;1.90;;;;;;;;;;5069963;28;20025;-75
2021/09/15 09:51:01;;;;;;;9.50;1.95;;;;;;;;;;5075313;28;20054;-77
2021/09/15 09:53:28;;;;;;;12.27;1.98;;;;;;;;;;5088798;28;20444;-73
2021/09/15 09:55:57;;;;;;;10.55;1.70;;;;;;;;;;5073051;28;20035;-74
2021/09/15 09:58:24;;;;;;;15.07;3.65;;;;;;;;;;5070137;28;20036;-74
2021/09/15 10:00:53;;;;;;;11.40;2.00;;;;;;;;;;5067493;28;20029;-77
2021/09/15 10:03:19;;;;;;;14.48;2.72;;;;;;;;;;5071634;28;20021;-74
2021/09/15 10:05:45;;;;;;;8.57;2.55;;;;;;;;;;5072717;28;20127;-74
2021/09/15 10:08:11;;;;;;;15.38;2.25;;;;;;;;;;5070518;28;20017;-75
2021/09/15 10:10:40;;;;;;;13.38;2.20;;;;;;;;;;5072926;28;20035;-75
2021/09/15 10:13:09;;;;;;;13.50;2.35;;;;;;;;;;5072933;28;20524;-73
2021/09/15 10:15:49;;;;;;;9.23;2.72;;;;;;;;;;5071221;28;20025;-74
2021/09/15 10:18:16;;;;;;;13.25;2.20;;;;;;;;;;5069640;28;20040;-75
2021/09/15 10:20:48;;;;;;;12.30;2.50;;;;;;;;;;5071690;28;20035;-73
2021/09/15 10:23:52;;;;;;;13.40;2.40;;;;;;;;;;5072252;28;20028;-74
2021/09/15 10:26:25;;;;;;;16.35;2.50;;;;;;;;;;5013593;28;20033;-73
2021/09/15 10:29:09;;;;;;;11.35;2.92;;;;;;;;;;5026696;28;20518;-73
2021/09/15 10:31:51;;;;;;;15.50;2.38;;;;;;;;;;5047260;28;20506;-75
2021/09/15 10:34:40;;;;;;;12.52;2.38;;;;;;;;;;5071202;28;20081;-74
2021/09/15 10:37:12;;;;;;;9.32;2.13;;;;;;;;;;5055854;28;20060;-73
2021/09/15 10:39:57;;;;;;;16.08;3.90;;;;;;;;;;5053347;28;20025;-75
2021/09/15 10:42:35;;;;;;;12.13;2.47;;;;;;;;;;5072610;28;20040;-73
2021/09/15 10:45:14;;;;;;;13.55;3.03;;;;;;;;;;5071809;28;20081;-74
2021/09/15 10:47:41;;;;;;;19.05;2.83;;;;;;;;;;5068696;28;20177;-72
2021/09/15 10:50:08;;;;;;;13.25;2.58;;;;;;;;;;5072082;28;20027;-73
2021/09/15 10:52:40;;;;;;;11.07;2.40;;;;;;;;;;5072238;28;20043;-73
2021/09/15 10:55:15;;;;;;;9.60;2.30;;;;;;;;;;5069241;28;20513;-73
2021/09/15 10:57:44;;;;;;;14.40;2.28;;;;;;;;;;5068941;28;20024;-73
2021/09/15 11:00:16;;;;;;;14.50;2.83;;;;;;;;;;5065971;28;20036;-77
2021/09/15 11:02:43;;;;;;;11.57;2.15;;;;;;;;;;5067594;28;20048;-74
2021/09/15 11:05:27;;;;;;;12.48;2.60;;;;;;;;;;5071798;28;20025;-74
2021/09/15 11:07:54;;;;;;;19.23;2.70;;;;;;;;;;5068080;28;20419;-75
2021/09/15 11:10:49;;;;;;;12.75;2.65;;;;;;;;;;5071809;28;20040;-74
2021/09/15 11:13:16;;;;;;;18.75;3.78;;;;;;;;;;5054871;28;20025;-73
2021/09/15 11:15:47;;;;;;;18.23;3.30;;;;;;;;;;5071439;28;20028;-75
2021/09/15 11:18:16;;;;;;;20.35;2.72;;;;;;;;;;5067566;28;20024;-75
2021/09/15 11:20:42;;;;;;;12.32;2.80;;;;;;;;;;5071777;28;20119;-73
2021/09/15 11:23:09;;;;;;;14.65;2.60;;;;;;;;;;5071203;28;20052;-73
2021/09/15 11:25:36;;;;;;;12.95;4.30;;;;;;;;;;5071228;28;20021;-74
2021/09/15 11:28:05;;;;;;;16.80;3.17;;;;;;;;;;5068354;28;20482;-74
2021/09/15 11:30:31;;;;;;;11.40;2.17;;;;;;;;;;5071522;28;20033;-73
2021/09/15 11:32:58;;;;;;;16.05;2.92;;;;;;;;;;5070827;28;20482;-76
2021/09/15 11:35:24;;;;;;;18.98;2.20;;;;;;;;;;5070817;28;20036;-74
2021/09/15 11:37:50;;;;;;;10.10;2.13;;;;;;;;;;5068496;28;20503;-75
2021/09/15 11:40:16;;;;;;;9.43;2.50;;;;;;;;;;5071161;28;20597;-74
2021/09/15 11:42:42;;;;;;;16.40;2.92;;;;;;;;;;5070715;28;20600;-72
2021/09/15 11:45:23;;;;;;;14.65;2.97;;;;;;;;;;5070926;28;20020;-74
2021/09/15 11:47:51;;;;;;;12.35;2.17;;;;;;;;;;5066964;28;20036;-73
2021/09/15 11:50:18;;;;;;;9.55;2.00;;;;;;;;;;5071277;28;20433;-73
2021/09/15 11:52:48;;;;;;;11.70;2.20;;;;;;;;;;5070304;28;20052;-78
2021/09/15 11:55:16;;;;;;;14.80;2.38;;;;;;;;;;5070319;28;20310;-75
2021/09/15 11:57:44;;;;;;;10.18;2.05;;;;;;;;;;5068610;28;20084;-73
2021/09/15 12:00:10;;;;;;;9.23;2.05;;;;;;;;;;5069731;28;20050;-74
2021/09/15 12:02:38;;;;;;;7.90;2.15;;;;;;;;;;5070541;28;20509;-76
2021/09/15 12:05:04;;;;;;;11.13;2.30;;;;;;;;;;5070691;28;20028;-73
2021/09/15 12:07:31;;;;;;;12.88;2.15;;;;;;;;;;5068161;28;20020;-73
2021/09/15 12:09:58;;;;;;;14.80;2.20;;;;;;;;;;5069576;28;20111;-74
2021/09/15 12:12:27;;;;;;;12.27;2.30;;;;;;;;;;5070573;28;20029;-74
2021/09/15 12:14:57;;;;;;;14.23;2.50;;;;;;;;;;5070696;28;20027;-75
2021/09/15 12:17:23;;;;;;;8.95;1.65;;;;;;;;;;5067947;28;20107;-76
2021/09/15 12:19:50;;;;;;;10.05;2.05;;;;;;;;;;5071197;28;20013;-73
2021/09/15 12:22:20;;;;;;;13.57;2.20;;;;;;;;;;5070273;28;20047;-75
2021/09/15 12:24:58;;;;;;;11.52;2.08;;;;;;;;;;5070632;28;20024;-74
2021/09/15 12:27:24;;;;;;;10.43;1.83;;;;;;;;;;5067978;28;20427;-74
2021/09/15 12:30:00;;;;;;;15.02;2.10;;;;;;;;;;5070582;28;20082;-74
2021/09/15 12:32:29;;;;;;;8.52;1.50;;;;;;;;;;5070787;28;20024;-74
2021/09/15 12:34:56;;;;;;;11.70;2.45;;;;;;;;;;5070413;28;20103;-73
2021/09/15 12:37:22;;;;;;;10.80;1.73;;;;;;;;;;5067915;28;20048;-73
2021/09/15 12:39:51;;;;;;;8.80;1.77;;;;;;;;;;5069197;28;20020;-73
2021/09/15 12:42:18;;;;;;;6.80;1.63;;;;;;;;;;5069239;28;20025;-73
2021/09/15 12:44:44;;;;;;;12.57;2.42;;;;;;;;;;5070697;28;20021;-74
2021/09/15 12:47:10;;;;;;;15.98;2.33;;;;;;;;;;5069456;28;20020;-74
2021/09/15 12:49:38;;;;;;;10.20;2.67;;;;;;;;;;5073452;28;20490;-73
2021/09/15 12:52:17;;;;;;;11.30;2.92;;;;;;;;;;5073883;28;20285;-75
2021/09/15 12:54:54;;;;;;;14.00;2.42;;;;;;;;;;5073190;28;20062;-74
2021/09/15 12:57:30;;;;;;;13.73;2.65;;;;;;;;;;5070542;28;20029;-74
2021/09/15 13:00:16;;;;;;;12.77;2.10;;;;;;;;;;5074266;28;20448;-72
2021/09/15 13:02:52;;;;;;;11.38;2.42;;;;;;;;;;5073590;28;20116;-73
2021/09/15 13:05:18;;;;;;;12.45;2.40;;;;;;;;;;5070716;28;20020;-74
2021/09/15 13:07:44;;;;;;;6.15;1.70;;;;;;;;;;5072945;28;20027;-73
2021/09/15 13:10:11;;;;;;;13.10;3.28;;;;;;;;;;5074143;28;20035;-73
2021/09/15 13:12:37;;;;;;;12.80;2.60;;;;;;;;;;5073621;28;20028;-73
2021/09/15 13:15:04;;;;;;;9.80;2.13;;;;;;;;;;5073435;28;20036;-74
2021/09/15 13:17:31;;;;;;;15.63;2.30;;;;;;;;;;5072744;28;20048;-72
2021/09/15 13:19:57;;;;;;;9.75;2.35;;;;;;;;;;5073782;28;20029;-73
2021/09/15 13:22:24;;;;;;;9.65;2.13;;;;;;;;;;5073573;28;20502;-72
2021/09/15 13:24:50;;;;;;;10.30;1.90;;;;;;;;;;5073669;28;20055;-73
2021/09/15 13:27:16;;;;;;;12.18;2.30;;;;;;;;;;5072544;28;20070;-73
2021/09/15 13:29:43;;;;;;;12.02;2.28;;;;;;;;;;5073671;28;20028;-72
2021/09/15 13:32:09;;;;;;;13.45;2.60;;;;;;;;;;5073393;28;20043;-72
2021/09/15 13:34:35;;;;;;;14.02;2.47;;;;;;;;;;5073496;28;20099;-73
2021/09/15 13:37:02;;;;;;;12.98;2.25;;;;;;;;;;5071001;28;20119;-73
2021/09/15 13:39:29;;;;;;;10.60;2.60;;;;;;;;;;5072253;28;20029;-74
2021/09/15 13:41:55;;;;;;;18.00;2.85;;;;;;;;;;5073210;28;20063;-74
2021/09/15 13:44:21;;;;;;;12.18;2.53;;;;;;;;;;5073256;28;20028;-73
2021/09/15 13:46:47;;;;;;;12.80;2.60;;;;;;;;;;5072074;28;20024;-74
2021/09/15 13:49:15;;;;;;;12.55;3.13;;;;;;;;;;5072318;28;20013;-73
2021/09/15 13:51:42;;;;;;;13.55;2.60;;;;;;;;;;5073593;28;20025;-75
2021/09/15 13:54:08;;;;;;;16.73;2.65;;;;;;;;;;5072983;28;20456;-74
2021/09/15 13:56:34;;;;;;;13.13;2.72;;;;;;;;;;5070881;28;20012;-73
2021/09/15 13:59:00;;;;;;;12.70;2.30;;;;;;;;;;5070955;28;20166;-75
2021/09/15 14:01:26;;;;;;;13.18;2.38;;;;;;;;;;5073209;28;20024;-74
2021/09/15 14:03:52;;;;;;;13.35;2.45;;;;;;;;;;5071776;28;20024;-73
2021/09/15 14:06:18;;;;;;;16.42;2.17;;;;;;;;;;5072986;28;20025;-73
2021/09/15 14:08:45;;;;;;;12.27;2.53;;;;;;;;;;5071016;28;20067;-73
2021/09/15 14:11:11;;;;;;;15.27;2.67;;;;;;;;;;5072517;28;20077;-74
2021/09/15 14:13:37;;;;;;;17.80;2.72;;;;;;;;;;5072923;28;20039;-73
2021/09/15 14:16:03;;;;;;;20.35;3.53;;;;;;;;;;5072192;28;20024;-72
2021/09/15 14:18:29;;;;;;;15.65;3.03;;;;;;;;;;5068756;28;20024;-74
2021/09/15 14:20:55;;;;;;;14.60;3.45;;;;;;;;;;5072666;28;20382;-73
2021/09/15 14:23:21;;;;;;;9.93;2.55;;;;;;;;;;5067183;28;20519;-74
2021/09/15 14:25:48;;;;;;;10.23;2.58;;;;;;;;;;5072477;28;20032;-78
2021/09/15 14:28:14;;;;;;;15.88;2.58;;;;;;;;;;5067648;28;20401;-75
2021/09/15 14:30:41;;;;;;;13.63;2.40;;;;;;;;;;5076606;28;20035;-74
2021/09/15 14:33:08;;;;;;;7.95;1.85;;;;;;;;;;5068409;28;20081;-75
2021/09/15 14:35:34;;;;;;;8.15;2.00;;;;;;;;;;5075324;28;20886;-73